This is the latest recevied weather packets stored in our database for station/object LRCL. If no packets are shown the sender has not sent any weather packets the latest 10 day(s).
| Time | Temp. | Humidity | Pressure | Rain* | Wind** | Luminosity | Snow |
|---|---|---|---|---|---|---|---|
| 1777800788 | 13.89° C | 33% | 1022 hPa | - | - | - | - |
| 1777799889 | 13.89° C | 33% | 1023 hPa | - | - | - | - |
| 1777799009 | 13.89° C | 33% | 1023 hPa | - | - | - | - |
| 1777798089 | 12.78° C | 36% | 1023 hPa | - | - | - | - |
| 1777797188 | 12.78° C | 36% | 1023 hPa | - | - | - | - |
| 1777796289 | 12.78° C | 33% | 1023 hPa | - | - | - | - |
| 1777795398 | 12.78° C | 33% | 1023 hPa | - | - | - | - |
| 1777794488 | 12.78° C | 41% | 1023 hPa | - | - | - | - |
| 1777793588 | 12.78° C | 41% | 1023 hPa | - | - | - | - |
| 1777792690 | 12.22° C | 47% | 1023 hPa | - | - | - | - |
| 1777791789 | 12.22° C | 47% | 1023 hPa | - | - | - | - |
| 1777790889 | 10° C | 58% | 1023 hPa | - | - | - | - |
| 1777790025 | 10° C | 58% | 1023 hPa | - | - | - | - |
| 1777789089 | 7.78° C | 62% | 1023 hPa | - | - | - | - |
| 1777788188 | 7.78° C | 62% | 1023 hPa | - | - | - | - |
| 1777787288 | 7.22° C | 71% | 1023 hPa | - | - | - | - |
| 1777786388 | 7.22° C | 71% | 1023 hPa | - | - | - | - |
| 1777785488 | 5° C | 76% | 1023 hPa | - | - | - | - |
| 1777784588 | 5° C | 76% | 1023 hPa | - | - | - | - |
| 1777783688 | 3.89° C | 75% | 1023 hPa | - | - | - | - |
| 1777782789 | 3.89° C | 75% | 1023 hPa | - | - | - | - |
| 1777781888 | 2.78° C | 81% | 1022 hPa | - | - | - | - |
| 1777781011 | 2.78° C | 81% | 1022 hPa | - | - | - | - |
| 1777780090 | 2.22° C | 81% | 1022 hPa | - | - | - | - |
| 1777779188 | 2.22° C | 81% | 1022 hPa | - | - | - | - |
* Rain since midnight (hover to see other rain measurements)
** Current wind speed in m/s (hover to see current wind gust speed)